createdAt,value
2022-12-08T00:01:29.664Z,4.20
2022-12-08T00:04:00.286Z,3.80
2022-12-08T00:06:58.038Z,5.90
2022-12-08T00:09:40.008Z,4.77
2022-12-08T00:12:17.431Z,6.47
2022-12-08T00:14:47.257Z,6.37
2022-12-08T00:17:16.591Z,7.27
2022-12-08T00:19:44.410Z,5.80
2022-12-08T00:22:12.981Z,5.37
2022-12-08T00:24:45.484Z,6.27
2022-12-08T00:27:15.404Z,6.60
2022-12-08T00:29:45.809Z,6.20
2022-12-08T00:32:13.196Z,6.53
2022-12-08T00:34:40.373Z,7.80
2022-12-08T00:37:07.497Z,5.33
2022-12-08T00:39:34.741Z,5.47
2022-12-08T00:42:14.139Z,8.77
2022-12-08T00:44:43.297Z,7.03
2022-12-08T00:47:11.594Z,4.57
2022-12-08T00:49:38.896Z,7.77
2022-12-08T00:52:06.560Z,6.40
2022-12-08T00:54:34.442Z,5.83
2022-12-08T00:57:01.928Z,5.33
2022-12-08T00:59:29.088Z,5.60
2022-12-08T01:01:56.507Z,6.07
2022-12-08T01:04:24.809Z,5.37
2022-12-08T01:06:52.911Z,5.57
2022-12-08T01:09:20.153Z,4.40
2022-12-08T01:11:47.340Z,7.03
2022-12-08T01:14:15.221Z,3.77
2022-12-08T01:16:43.262Z,5.47
2022-12-08T01:19:13.572Z,4.27
2022-12-08T01:21:41.747Z,3.97
2022-12-08T01:24:13.877Z,2.63
2022-12-08T01:26:41.579Z,3.87
2022-12-08T01:29:09.572Z,4.93
2022-12-08T01:31:37.004Z,3.27
2022-12-08T01:34:04.703Z,6.53
2022-12-08T01:36:36.923Z,3.80
2022-12-08T01:39:09.197Z,3.90
2022-12-08T01:41:38.167Z,2.80
2022-12-08T01:44:08.395Z,3.87
2022-12-08T01:46:38.489Z,3.87
2022-12-08T01:49:34.158Z,2.93
2022-12-08T01:52:16.077Z,6.83
2022-12-08T01:54:51.202Z,2.67
2022-12-08T01:57:28.981Z,6.13
2022-12-08T02:00:10.629Z,3.50
2022-12-08T02:03:01.232Z,2.80
2022-12-08T02:05:33.472Z,2.77
2022-12-08T02:08:06.554Z,2.80
2022-12-08T02:10:37.791Z,5.10
2022-12-08T02:13:09.800Z,3.23
2022-12-08T02:16:05.063Z,5.67
2022-12-08T02:18:40.008Z,2.53
2022-12-08T02:21:38.338Z,2.30
2022-12-08T02:24:30.438Z,2.50
2022-12-08T02:27:16.778Z,3.00
2022-12-08T02:30:18.920Z,3.57
2022-12-08T02:33:21.499Z,3.00
2022-12-08T02:36:05.479Z,3.47
2022-12-08T02:38:42.325Z,6.23
2022-12-08T02:41:54.529Z,2.10
2022-12-08T02:44:29.854Z,2.30
2022-12-08T02:47:14.458Z,2.73
2022-12-08T02:49:42.065Z,2.50
2022-12-08T02:52:31.861Z,3.07
2022-12-08T02:55:46.625Z,4.27
2022-12-08T02:58:24.224Z,4.20
2022-12-08T03:01:29.021Z,4.23
2022-12-08T03:04:10.032Z,6.00
2022-12-08T03:07:12.382Z,1.90
2022-12-08T03:09:58.832Z,2.87
2022-12-08T03:12:39.739Z,2.77
2022-12-08T03:15:13.183Z,2.80
2022-12-08T03:17:46.397Z,7.90
2022-12-08T03:20:21.200Z,5.77
2022-12-08T03:22:51.077Z,3.20
2022-12-08T03:25:27.481Z,3.53
2022-12-08T03:27:54.697Z,2.90
2022-12-08T03:30:21.887Z,5.37
2022-12-08T03:33:03.581Z,4.00
2022-12-08T03:35:34.318Z,3.03
2022-12-08T03:38:11.808Z,5.73
2022-12-08T03:40:40.017Z,3.47
2022-12-08T03:43:07.562Z,3.50
2022-12-08T03:45:34.883Z,3.87
2022-12-08T03:48:02.656Z,4.07
2022-12-08T03:50:30.170Z,3.20
2022-12-08T03:52:57.468Z,2.80
2022-12-08T03:55:24.914Z,4.13
2022-12-08T03:57:52.110Z,4.60
2022-12-08T04:00:19.509Z,5.30
2022-12-08T04:02:46.746Z,4.03
2022-12-08T04:05:14.018Z,4.30
2022-12-08T04:07:41.346Z,3.90
2022-12-08T04:10:10.342Z,6.23
2022-12-08T04:12:37.599Z,3.43
2022-12-08T04:15:05.431Z,4.57
2022-12-08T04:17:32.665Z,3.43
2022-12-08T04:19:59.821Z,3.77
2022-12-08T04:22:27.036Z,4.50
2022-12-08T04:24:54.341Z,3.97
2022-12-08T04:27:21.482Z,4.20
2022-12-08T04:29:48.841Z,6.57
2022-12-08T04:32:16.349Z,4.73
2022-12-08T04:34:43.508Z,6.93
2022-12-08T04:37:10.779Z,5.57
2022-12-08T04:39:37.903Z,6.40
2022-12-08T04:42:05.132Z,4.23
2022-12-08T04:44:32.345Z,4.17
2022-12-08T04:46:59.611Z,7.23
2022-12-08T04:49:26.772Z,4.70
2022-12-08T04:51:55.327Z,4.63
2022-12-08T04:54:22.398Z,4.53
2022-12-08T04:56:49.639Z,3.20
2022-12-08T04:59:16.764Z,3.53
2022-12-08T05:01:44.231Z,3.60
2022-12-08T05:04:11.462Z,5.00
2022-12-08T05:06:38.630Z,2.87
2022-12-08T05:09:05.969Z,4.47
2022-12-08T05:11:33.038Z,5.00
2022-12-08T05:14:00.191Z,4.33
2022-12-08T05:16:27.461Z,4.70
2022-12-08T05:18:54.603Z,3.60
2022-12-08T05:21:21.971Z,3.53
2022-12-08T05:23:49.183Z,4.30
2022-12-08T05:26:16.218Z,5.27
2022-12-08T05:28:44.068Z,4.67
2022-12-08T05:31:16.510Z,5.40
2022-12-08T05:33:45.089Z,4.30
2022-12-08T05:36:14.759Z,6.30
2022-12-08T05:38:42.756Z,4.10
2022-12-08T05:41:20.436Z,4.30
2022-12-08T05:43:48.187Z,6.30
2022-12-08T05:46:16.135Z,5.90
2022-12-08T05:48:43.453Z,4.20
2022-12-08T05:51:37.214Z,3.00
2022-12-08T05:54:04.497Z,5.67
2022-12-08T05:56:31.553Z,6.70
2022-12-08T05:58:58.706Z,4.47
2022-12-08T06:01:30.572Z,4.37
2022-12-08T06:04:00.851Z,7.23
2022-12-08T06:06:29.342Z,4.50
2022-12-08T06:08:56.973Z,4.63
2022-12-08T06:11:30.845Z,4.47
2022-12-08T06:13:59.098Z,4.53
2022-12-08T06:16:28.406Z,3.90
2022-12-08T06:18:57.087Z,7.13
2022-12-08T06:21:27.734Z,3.67
2022-12-08T06:23:55.473Z,7.63
2022-12-08T06:26:23.764Z,6.17
2022-12-08T06:28:51.635Z,5.63
2022-12-08T06:31:25.679Z,7.43
2022-12-08T06:33:55.040Z,6.27
2022-12-08T06:36:26.056Z,3.43
2022-12-08T06:38:53.410Z,6.40
2022-12-08T06:41:20.844Z,6.17
2022-12-08T06:43:48.438Z,4.77
2022-12-08T06:46:19.315Z,6.23
2022-12-08T06:48:46.662Z,4.93
2022-12-08T06:51:23.529Z,5.00
2022-12-08T06:53:51.427Z,5.73
2022-12-08T06:56:20.288Z,8.30
2022-12-08T06:58:52.360Z,6.50
2022-12-08T07:01:20.467Z,6.53
2022-12-08T07:03:47.989Z,6.17
2022-12-08T07:06:25.430Z,5.33
2022-12-08T07:08:53.276Z,4.57
2022-12-08T07:11:22.190Z,6.53
2022-12-08T07:13:50.586Z,6.67
2022-12-08T07:16:17.985Z,6.40
2022-12-08T07:18:45.744Z,7.97
2022-12-08T07:21:17.263Z,6.10
2022-12-08T07:23:56.034Z,7.33
2022-12-08T07:26:25.557Z,7.37
2022-12-08T07:28:52.798Z,5.50
2022-12-08T07:31:24.696Z,7.43
2022-12-08T07:33:52.510Z,8.80
2022-12-08T07:36:20.619Z,7.10
2022-12-08T07:38:48.422Z,6.73
2022-12-08T07:41:23.472Z,8.60
2022-12-08T07:43:53.610Z,8.43
2022-12-08T07:46:23.722Z,6.80
2022-12-08T07:48:53.568Z,10.53
2022-12-08T07:51:24.112Z,5.67
2022-12-08T07:53:54.594Z,6.97
2022-12-08T07:56:23.527Z,5.67
2022-12-08T07:58:51.230Z,8.33
2022-12-08T08:01:32.157Z,9.87
2022-12-08T08:04:02.191Z,6.93
2022-12-08T08:06:29.424Z,5.87
2022-12-08T08:08:56.713Z,6.33
2022-12-08T08:11:24.224Z,7.30
2022-12-08T08:13:52.486Z,7.30
2022-12-08T08:16:20.607Z,7.67
2022-12-08T08:18:50.038Z,8.07
2022-12-08T08:24:06.079Z,8.50
2022-12-08T08:26:33.181Z,7.67
2022-12-08T08:29:00.270Z,7.33
2022-12-08T08:31:27.602Z,6.43
2022-12-08T08:33:57.106Z,7.93
2022-12-08T08:36:24.182Z,10.27
2022-12-08T08:38:51.328Z,10.47
2022-12-08T08:41:18.620Z,9.97
2022-12-08T08:43:45.724Z,7.63
2022-12-08T08:46:12.917Z,10.27
2022-12-08T08:48:40.735Z,8.63
2022-12-08T08:51:10.832Z,8.00
2022-12-08T08:53:38.113Z,6.63
2022-12-08T08:56:18.428Z,10.90
2022-12-08T08:58:49.220Z,7.37
2022-12-08T09:01:21.256Z,6.67
2022-12-08T09:03:49.532Z,6.40
2022-12-08T09:06:17.220Z,9.30
2022-12-08T09:08:45.427Z,7.63
2022-12-08T09:11:13.389Z,7.83
2022-12-08T09:13:40.618Z,9.73
2022-12-08T09:16:09.724Z,6.63
2022-12-08T09:18:36.963Z,6.50
2022-12-08T09:21:16.387Z,6.03
2022-12-08T09:23:44.152Z,8.83
2022-12-08T09:26:11.795Z,7.67
2022-12-08T09:28:38.943Z,6.77
2022-12-08T09:31:06.279Z,6.90
2022-12-08T09:33:34.022Z,11.90
2022-12-08T09:36:05.227Z,7.23
2022-12-08T09:38:32.458Z,6.40
2022-12-08T09:41:02.479Z,7.47
2022-12-08T09:43:51.997Z,6.27
2022-12-08T09:46:20.369Z,7.73
2022-12-08T09:48:56.105Z,12.37
2022-12-08T09:51:44.353Z,7.50
2022-12-08T09:54:32.629Z,7.93
2022-12-08T09:57:05.703Z,7.63
2022-12-08T09:59:35.211Z,9.63
2022-12-08T10:02:13.716Z,8.47
2022-12-08T10:04:41.631Z,8.57
2022-12-08T10:07:32.564Z,8.40
2022-12-08T10:10:25.293Z,8.33
2022-12-08T10:13:05.340Z,6.50
2022-12-08T10:15:48.020Z,7.20
2022-12-08T10:18:25.328Z,7.43
2022-12-08T10:20:52.698Z,6.33
2022-12-08T10:23:53.191Z,7.30
2022-12-08T10:26:22.335Z,5.17
2022-12-08T10:28:49.589Z,6.57
2022-12-08T10:31:25.612Z,8.57
2022-12-08T10:34:26.147Z,9.13
2022-12-08T10:36:57.604Z,8.87
2022-12-08T10:39:39.933Z,6.57
2022-12-08T10:42:12.384Z,7.30
2022-12-08T10:44:57.988Z,9.27
2022-12-08T10:47:28.218Z,5.57
2022-12-08T10:50:23.717Z,6.87
2022-12-08T10:53:12.758Z,11.80
2022-12-08T10:55:49.826Z,9.13
2022-12-08T10:58:45.310Z,8.23
2022-12-08T11:01:18.406Z,7.00
2022-12-08T11:03:59.480Z,7.73
2022-12-08T11:06:38.610Z,6.80
2022-12-08T11:09:17.635Z,7.87
2022-12-08T11:11:49.361Z,6.00
2022-12-08T11:14:28.523Z,6.20
2022-12-08T11:17:15.059Z,9.40
2022-12-08T11:20:03.715Z,7.10
2022-12-08T11:22:38.353Z,6.80
2022-12-08T11:25:08.256Z,6.73
2022-12-08T11:27:38.567Z,4.53
2022-12-08T11:30:22.021Z,5.03
2022-12-08T11:32:55.328Z,19.73
2022-12-08T11:35:41.697Z,7.13
2022-12-08T11:38:23.211Z,7.20
2022-12-08T11:41:33.741Z,6.13
2022-12-08T11:44:29.739Z,4.73
2022-12-08T11:47:05.049Z,11.80
2022-12-08T11:49:37.617Z,7.07
2022-12-08T11:52:31.834Z,6.03
2022-12-08T11:55:43.872Z,7.23
2022-12-08T11:58:24.894Z,5.27
2022-12-08T12:00:52.117Z,5.20
2022-12-08T12:03:31.497Z,9.90
2022-12-08T12:10:04.183Z,9.40
2022-12-08T12:12:58.722Z,8.37
2022-12-08T12:16:27.691Z,12.70
2022-12-08T12:19:02.520Z,6.00
2022-12-08T12:21:39.898Z,7.23
2022-12-08T12:24:22.328Z,9.40
2022-12-08T12:27:22.846Z,10.50
2022-12-08T12:29:59.229Z,8.97
2022-12-08T12:32:40.712Z,4.73
2022-12-08T12:35:28.313Z,6.97
2022-12-08T12:38:25.627Z,6.73
2022-12-08T12:41:03.749Z,6.67
2022-12-08T12:43:41.258Z,9.30
2022-12-08T12:46:51.519Z,5.47
2022-12-08T12:49:40.900Z,5.57
2022-12-08T12:52:16.727Z,5.23
2022-12-08T12:55:10.273Z,6.80
2022-12-08T12:57:52.887Z,6.23
2022-12-08T13:00:24.391Z,5.23
2022-12-08T13:02:54.752Z,5.37
2022-12-08T13:05:31.038Z,6.37
2022-12-08T13:08:07.887Z,7.80
2022-12-08T13:10:41.219Z,6.30
2022-12-08T13:13:12.827Z,5.30
2022-12-08T13:16:14.101Z,6.67
2022-12-08T13:18:51.589Z,9.17
2022-12-08T13:21:25.091Z,5.83
2022-12-08T13:24:10.677Z,9.80
2022-12-08T13:26:52.006Z,6.47
2022-12-08T13:29:24.969Z,7.40
2022-12-08T13:31:59.981Z,11.57
2022-12-08T13:34:52.117Z,11.10
2022-12-08T13:37:31.376Z,7.70
2022-12-08T13:40:09.056Z,7.67
2022-12-08T13:43:14.923Z,7.37
2022-12-08T13:46:52.906Z,9.50
2022-12-08T13:56:16.672Z,6.37
2022-12-08T13:57:33.267Z,6.07
2022-12-08T14:00:08.526Z,9.27
2022-12-08T14:02:48.163Z,8.87
2022-12-08T14:05:34.672Z,19.93
2022-12-08T14:08:50.389Z,9.03
2022-12-08T14:11:08.014Z,5.93
2022-12-08T14:13:35.263Z,7.77
2022-12-08T14:16:02.433Z,7.47
2022-12-08T14:18:31.803Z,11.17
2022-12-08T14:21:25.634Z,6.60
2022-12-08T14:23:52.817Z,6.73
2022-12-08T14:26:19.887Z,7.13
2022-12-08T14:28:47.038Z,8.10
2022-12-08T14:31:14.854Z,10.80
2022-12-08T14:33:42.951Z,8.13
2022-12-08T14:36:12.532Z,8.47
2022-12-08T14:38:39.604Z,8.73
2022-12-08T14:41:09.399Z,8.07
2022-12-08T14:43:36.723Z,8.77
2022-12-08T14:46:19.511Z,9.97
2022-12-08T14:48:46.946Z,7.30
2022-12-08T14:51:22.388Z,7.00
2022-12-08T14:53:59.912Z,8.97
2022-12-08T14:56:39.128Z,11.87
2022-12-08T14:59:19.473Z,11.37
2022-12-08T15:01:49.025Z,7.77
2022-12-08T15:04:23.274Z,10.00
2022-12-08T15:07:25.679Z,10.07
2022-12-08T15:10:17.654Z,8.37
2022-12-08T15:13:11.431Z,7.47
2022-12-08T15:15:58.290Z,28.17
2022-12-08T15:18:39.804Z,8.03
2022-12-08T15:21:10.224Z,7.53
2022-12-08T15:23:44.877Z,11.27
2022-12-08T15:26:27.092Z,7.93
2022-12-08T15:28:55.720Z,7.00
2022-12-08T15:31:23.259Z,7.53
2022-12-08T15:33:50.572Z,10.77
2022-12-08T15:36:18.241Z,7.17
2022-12-08T15:38:45.471Z,8.77
2022-12-08T15:41:15.201Z,6.00
2022-12-08T15:43:42.658Z,7.83
2022-12-08T15:46:10.068Z,6.90
2022-12-08T15:48:37.892Z,8.80
2022-12-08T15:51:05.090Z,9.10
2022-12-08T15:53:32.392Z,7.17
2022-12-08T15:56:27.010Z,7.13
2022-12-08T15:58:54.708Z,9.13
2022-12-08T16:01:22.284Z,8.20
2022-12-08T16:07:19.800Z,12.10
2022-12-08T16:09:33.751Z,10.90
2022-12-08T16:12:19.659Z,10.17
2022-12-08T16:15:49.668Z,11.47
2022-12-08T16:17:35.096Z,50.23
2022-12-08T16:20:02.402Z,9.23
2022-12-08T16:25:22.391Z,10.40
2022-12-08T16:28:17.221Z,9.13
2022-12-08T16:30:42.309Z,10.17
2022-12-08T16:33:11.728Z,12.03
2022-12-08T16:35:40.282Z,10.43
2022-12-08T16:38:07.836Z,14.30
2022-12-08T16:40:55.071Z,15.23
2022-12-08T16:43:22.241Z,11.77
2022-12-08T16:45:49.542Z,10.60
2022-12-08T16:48:16.780Z,10.90
2022-12-08T16:50:45.657Z,9.70
2022-12-08T16:53:14.418Z,12.00
2022-12-08T16:55:46.415Z,9.03
2022-12-08T16:58:14.507Z,9.47
2022-12-08T17:00:41.629Z,10.33
2022-12-08T17:03:08.857Z,8.27
2022-12-08T17:05:39.737Z,7.57
2022-12-08T17:08:07.303Z,7.17
2022-12-08T17:10:35.668Z,6.53
2022-12-08T17:13:03.110Z,8.03
2022-12-08T17:15:30.274Z,35.73
2022-12-08T17:17:57.429Z,15.80
2022-12-08T17:20:27.983Z,10.23
2022-12-08T17:22:58.924Z,10.43
2022-12-08T17:25:27.082Z,10.17
2022-12-08T17:27:56.202Z,20.77
2022-12-08T17:30:23.641Z,9.87
2022-12-08T17:32:52.765Z,9.13
2022-12-08T17:35:20.229Z,8.63
2022-12-08T17:37:47.600Z,9.57
2022-12-08T17:40:14.755Z,11.60
2022-12-08T17:42:42.413Z,10.67
2022-12-08T17:45:10.275Z,23.43
2022-12-08T17:47:37.841Z,15.73
2022-12-08T17:50:07.124Z,7.67
2022-12-08T17:52:34.466Z,9.27
2022-12-08T17:55:01.825Z,6.93
2022-12-08T17:57:28.889Z,7.70
2022-12-08T17:59:56.051Z,7.97
2022-12-08T18:02:23.513Z,40.97
2022-12-08T18:04:50.721Z,14.77
2022-12-08T18:07:17.966Z,10.47
2022-12-08T18:09:45.152Z,16.73
2022-12-08T18:12:12.248Z,14.70
2022-12-08T18:14:39.457Z,11.87
2022-12-08T18:17:09.552Z,17.53
2022-12-08T18:19:36.813Z,20.03
2022-12-08T18:22:04.357Z,19.30
2022-12-08T18:24:31.544Z,17.63
2022-12-08T18:26:58.698Z,21.27
2022-12-08T18:29:26.082Z,21.73
2022-12-08T18:31:53.222Z,21.37
2022-12-08T18:34:20.746Z,17.17
2022-12-08T18:36:48.943Z,19.80
2022-12-08T18:39:27.051Z,26.77
2022-12-08T18:41:55.382Z,21.50
2022-12-08T18:44:22.814Z,15.97
2022-12-08T18:46:50.487Z,15.73
2022-12-08T18:49:21.250Z,11.67
2022-12-08T18:51:48.502Z,17.23
2022-12-08T18:54:15.815Z,15.60
2022-12-08T18:56:43.206Z,14.10
2022-12-08T18:59:13.965Z,16.07
2022-12-08T19:01:41.593Z,13.10
2022-12-08T19:04:28.033Z,14.97
2022-12-08T19:06:56.875Z,12.60
2022-12-08T19:09:26.604Z,28.77
2022-12-08T19:11:53.830Z,13.73
2022-12-08T19:14:27.936Z,10.27
2022-12-08T19:16:59.686Z,11.90
2022-12-08T19:19:28.242Z,10.93
2022-12-08T19:21:56.204Z,14.30
2022-12-08T19:24:24.734Z,15.60
2022-12-08T19:26:52.651Z,9.07
2022-12-08T19:29:26.810Z,18.43
2022-12-08T19:31:54.151Z,14.57
2022-12-08T19:34:21.819Z,11.50
2022-12-08T19:36:49.045Z,9.20
2022-12-08T19:39:40.632Z,11.80
2022-12-08T19:42:36.015Z,13.23
2022-12-08T19:45:12.229Z,10.70
2022-12-08T19:47:40.212Z,9.47
2022-12-08T19:50:28.295Z,11.73
2022-12-08T19:52:56.263Z,9.50
2022-12-08T19:55:24.560Z,13.17
2022-12-08T19:57:53.060Z,13.87
2022-12-08T20:00:21.317Z,13.10
2022-12-08T20:02:48.833Z,40.67
2022-12-08T20:05:16.118Z,11.13
2022-12-08T20:07:43.420Z,11.17
2022-12-08T20:10:25.026Z,9.70
2022-12-08T20:13:12.139Z,10.47
2022-12-08T20:15:40.041Z,21.60
2022-12-08T20:18:07.450Z,14.90
2022-12-08T20:20:34.684Z,15.20
2022-12-08T20:23:02.086Z,10.73
2022-12-08T20:25:29.394Z,12.20
2022-12-08T20:27:56.851Z,9.87
2022-12-08T20:30:24.392Z,10.07
2022-12-08T20:32:52.575Z,11.97
2022-12-08T20:35:19.789Z,11.13
2022-12-08T20:37:47.038Z,11.03
2022-12-08T20:40:14.832Z,9.93
2022-12-08T20:42:42.336Z,26.23
2022-12-08T20:45:10.146Z,39.50
2022-12-08T20:47:37.769Z,12.67
2022-12-08T20:50:07.516Z,33.60
2022-12-08T20:52:35.125Z,38.10
2022-12-08T20:55:02.707Z,22.90
2022-12-08T20:57:29.849Z,10.37
2022-12-08T20:59:56.970Z,17.03
2022-12-08T21:02:24.395Z,9.90
2022-12-08T21:04:51.818Z,20.17
2022-12-08T21:07:19.162Z,21.50
2022-12-08T21:09:46.806Z,26.67
2022-12-08T21:12:14.211Z,17.37
2022-12-08T21:14:42.155Z,18.70
2022-12-08T21:17:09.636Z,15.37
2022-12-08T21:19:37.140Z,12.67
2022-12-08T21:22:04.423Z,17.77
2022-12-08T21:24:35.017Z,16.13
2022-12-08T21:27:02.911Z,20.30
2022-12-08T21:29:30.184Z,29.13
2022-12-08T21:32:00.172Z,35.97
2022-12-08T21:34:34.235Z,18.83
2022-12-08T21:37:02.170Z,21.37
2022-12-08T21:39:29.514Z,25.47
2022-12-08T21:42:15.013Z,23.67
2022-12-08T21:44:42.362Z,30.00
2022-12-08T21:47:09.548Z,35.13
2022-12-08T21:49:37.045Z,17.80
2022-12-08T21:52:04.431Z,16.90
2022-12-08T21:54:31.879Z,22.37
2022-12-08T21:56:59.360Z,26.00
2022-12-08T21:59:26.865Z,21.97
2022-12-08T22:01:54.290Z,20.37
2022-12-08T22:04:22.453Z,17.90
2022-12-08T22:06:50.082Z,20.70
2022-12-08T22:09:17.917Z,14.73
2022-12-08T22:11:45.565Z,14.90
2022-12-08T22:14:15.162Z,21.20
2022-12-08T22:16:44.135Z,28.60
2022-12-08T22:19:12.185Z,14.23
2022-12-08T22:21:39.892Z,23.10
2022-12-08T22:24:07.865Z,17.23
2022-12-08T22:26:35.310Z,34.07
2022-12-08T22:29:02.690Z,18.67
2022-12-08T22:31:31.109Z,35.27
2022-12-08T22:33:59.774Z,26.87
2022-12-08T22:36:28.184Z,20.07
2022-12-08T22:38:55.821Z,18.43
2022-12-08T22:41:24.053Z,17.57
2022-12-08T22:43:51.754Z,46.43
2022-12-08T22:46:26.396Z,31.73
2022-12-08T22:48:55.339Z,22.07
2022-12-08T22:51:22.669Z,17.40
2022-12-08T22:53:50.806Z,17.57
2022-12-08T22:56:19.898Z,18.93
2022-12-08T22:58:47.807Z,26.90
2022-12-08T23:01:31.215Z,39.23
2022-12-08T23:04:00.674Z,34.90
2022-12-08T23:06:29.934Z,38.47
2022-12-08T23:08:58.626Z,57.13
2022-12-08T23:11:29.976Z,23.17
2022-12-08T23:14:02.113Z,42.10
2022-12-08T23:16:29.643Z,34.83
2022-12-08T23:18:57.053Z,23.27
2022-12-08T23:21:24.362Z,25.83
2022-12-08T23:23:51.539Z,23.20
2022-12-08T23:26:25.205Z,49.73
2022-12-08T23:28:53.383Z,52.67
2022-12-08T23:31:22.777Z,24.47
2022-12-08T23:33:51.237Z,41.87
2022-12-08T23:36:20.933Z,26.43
2022-12-08T23:38:49.164Z,39.73
2022-12-08T23:41:16.996Z,28.60
2022-12-08T23:43:50.223Z,29.40
2022-12-08T23:46:20.397Z,44.07
2022-12-08T23:48:48.210Z,53.83
2022-12-08T23:51:16.052Z,28.63
2022-12-08T23:53:44.587Z,24.57
2022-12-08T23:56:16.878Z,27.83
2022-12-08T23:58:45.977Z,18.27
